sensor_id;sensor_type;location;lat;lon;timestamp;P1;durP1;ratioP1;P2;durP2;ratioP2
50853;SDS011;44154;45.506;-122.806;2022-12-15T00:02:26;1.60;;;0.75;;
50853;SDS011;44154;45.506;-122.806;2022-12-15T00:05:11;1.23;;;0.63;;
50853;SDS011;44154;45.506;-122.806;2022-12-15T00:08:04;1.27;;;0.80;;
50853;SDS011;44154;45.506;-122.806;2022-12-15T00:10:52;3.58;;;1.00;;
50853;SDS011;44154;45.506;-122.806;2022-12-15T00:13:37;2.70;;;1.33;;
50853;SDS011;44154;45.506;-122.806;2022-12-15T00:16:22;5.18;;;1.05;;
50853;SDS011;44154;45.506;-122.806;2022-12-15T00:19:06;2.75;;;0.90;;
50853;SDS011;44154;45.506;-122.806;2022-12-15T00:21:51;1.80;;;0.80;;
50853;SDS011;44154;45.506;-122.806;2022-12-15T00:24:36;1.25;;;0.63;;
50853;SDS011;44154;45.506;-122.806;2022-12-15T00:27:20;1.90;;;0.85;;
50853;SDS011;44154;45.506;-122.806;2022-12-15T00:30:05;4.63;;;0.75;;
50853;SDS011;44154;45.506;-122.806;2022-12-15T00:32:50;4.65;;;1.02;;
50853;SDS011;44154;45.506;-122.806;2022-12-15T00:35:35;2.95;;;0.98;;
50853;SDS011;44154;45.506;-122.806;2022-12-15T00:38:20;2.92;;;1.30;;
50853;SDS011;44154;45.506;-122.806;2022-12-15T00:41:04;3.30;;;0.90;;
50853;SDS011;44154;45.506;-122.806;2022-12-15T00:43:31;2.85;;;1.10;;
50853;SDS011;44154;45.506;-122.806;2022-12-15T00:45:58;3.03;;;0.80;;
50853;SDS011;44154;45.506;-122.806;2022-12-15T00:51:17;4.00;;;0.90;;
50853;SDS011;44154;45.506;-122.806;2022-12-15T00:53:44;3.47;;;1.10;;
50853;SDS011;44154;45.506;-122.806;2022-12-15T00:56:29;4.43;;;1.17;;
50853;SDS011;44154;45.506;-122.806;2022-12-15T00:59:14;4.18;;;0.98;;
50853;SDS011;44154;45.506;-122.806;2022-12-15T01:01:59;6.55;;;1.27;;
50853;SDS011;44154;45.506;-122.806;2022-12-15T01:04:44;5.15;;;1.38;;
50853;SDS011;44154;45.506;-122.806;2022-12-15T01:07:28;7.28;;;1.23;;
50853;SDS011;44154;45.506;-122.806;2022-12-15T01:10:13;4.35;;;1.25;;
50853;SDS011;44154;45.506;-122.806;2022-12-15T01:12:57;6.93;;;1.20;;
50853;SDS011;44154;45.506;-122.806;2022-12-15T01:15:42;6.18;;;1.30;;
50853;SDS011;44154;45.506;-122.806;2022-12-15T01:18:26;6.07;;;1.95;;
50853;SDS011;44154;45.506;-122.806;2022-12-15T01:21:11;5.93;;;1.38;;
50853;SDS011;44154;45.506;-122.806;2022-12-15T01:23:38;8.18;;;1.55;;
50853;SDS011;44154;45.506;-122.806;2022-12-15T01:26:05;7.90;;;1.90;;
50853;SDS011;44154;45.506;-122.806;2022-12-15T01:28:32;5.88;;;1.38;;
50853;SDS011;44154;45.506;-122.806;2022-12-15T01:30:59;6.47;;;2.13;;
50853;SDS011;44154;45.506;-122.806;2022-12-15T01:33:25;5.63;;;1.20;;
50853;SDS011;44154;45.506;-122.806;2022-12-15T01:36:00;4.95;;;1.02;;
50853;SDS011;44154;45.506;-122.806;2022-12-15T01:38:27;3.50;;;1.10;;
50853;SDS011;44154;45.506;-122.806;2022-12-15T01:40:58;1.67;;;0.90;;
50853;SDS011;44154;45.506;-122.806;2022-12-15T01:43:31;2.90;;;1.15;;
50853;SDS011;44154;45.506;-122.806;2022-12-15T01:48:28;2.90;;;1.10;;
50853;SDS011;44154;45.506;-122.806;2022-12-15T01:53:36;3.50;;;1.27;;
50853;SDS011;44154;45.506;-122.806;2022-12-15T01:56:06;3.35;;;0.93;;
50853;SDS011;44154;45.506;-122.806;2022-12-15T02:01:03;2.85;;;1.40;;
50853;SDS011;44154;45.506;-122.806;2022-12-15T02:03:30;2.88;;;1.00;;
50853;SDS011;44154;45.506;-122.806;2022-12-15T02:05:56;4.28;;;1.20;;
50853;SDS011;44154;45.506;-122.806;2022-12-15T02:08:25;5.53;;;1.27;;
50853;SDS011;44154;45.506;-122.806;2022-12-15T02:19:18;8.32;;;1.33;;
50853;SDS011;44154;45.506;-122.806;2022-12-15T02:25:19;4.47;;;1.23;;
50853;SDS011;44154;45.506;-122.806;2022-12-15T02:31:18;2.95;;;0.85;;
50853;SDS011;44154;45.506;-122.806;2022-12-15T02:33:57;2.13;;;1.15;;
50853;SDS011;44154;45.506;-122.806;2022-12-15T02:36:36;3.78;;;1.20;;
50853;SDS011;44154;45.506;-122.806;2022-12-15T02:39:07;7.03;;;1.45;;
50853;SDS011;44154;45.506;-122.806;2022-12-15T02:41:44;5.10;;;1.20;;
50853;SDS011;44154;45.506;-122.806;2022-12-15T02:44:16;5.00;;;1.52;;
50853;SDS011;44154;45.506;-122.806;2022-12-15T03:00:51;1.85;;;0.65;;
50853;SDS011;44154;45.506;-122.806;2022-12-15T03:03:20;2.00;;;0.98;;
50853;SDS011;44154;45.506;-122.806;2022-12-15T03:05:48;1.98;;;0.77;;
50853;SDS011;44154;45.506;-122.806;2022-12-15T03:08:20;2.85;;;0.90;;
50853;SDS011;44154;45.506;-122.806;2022-12-15T03:10:47;4.30;;;1.10;;
50853;SDS011;44154;45.506;-122.806;2022-12-15T03:13:15;1.98;;;1.10;;
50853;SDS011;44154;45.506;-122.806;2022-12-15T03:15:42;2.28;;;0.98;;
50853;SDS011;44154;45.506;-122.806;2022-12-15T03:18:08;3.38;;;1.23;;
50853;SDS011;44154;45.506;-122.806;2022-12-15T03:20:34;2.58;;;0.90;;
50853;SDS011;44154;45.506;-122.806;2022-12-15T03:23:00;4.15;;;1.90;;
50853;SDS011;44154;45.506;-122.806;2022-12-15T03:25:27;4.05;;;2.40;;
50853;SDS011;44154;45.506;-122.806;2022-12-15T03:27:54;2.95;;;2.08;;
50853;SDS011;44154;45.506;-122.806;2022-12-15T03:30:21;3.85;;;1.67;;
50853;SDS011;44154;45.506;-122.806;2022-12-15T03:32:47;5.82;;;1.60;;
50853;SDS011;44154;45.506;-122.806;2022-12-15T03:35:13;3.30;;;1.85;;
50853;SDS011;44154;45.506;-122.806;2022-12-15T03:37:40;5.85;;;2.15;;
50853;SDS011;44154;45.506;-122.806;2022-12-15T03:40:07;5.28;;;2.17;;
50853;SDS011;44154;45.506;-122.806;2022-12-15T03:42:33;7.93;;;2.35;;
50853;SDS011;44154;45.506;-122.806;2022-12-15T03:45:15;4.53;;;2.22;;
50853;SDS011;44154;45.506;-122.806;2022-12-15T03:47:43;6.30;;;3.30;;
50853;SDS011;44154;45.506;-122.806;2022-12-15T03:50:10;5.30;;;3.30;;
50853;SDS011;44154;45.506;-122.806;2022-12-15T03:52:38;9.70;;;7.25;;
50853;SDS011;44154;45.506;-122.806;2022-12-15T03:55:04;8.38;;;6.30;;
50853;SDS011;44154;45.506;-122.806;2022-12-15T03:57:32;8.38;;;4.85;;
50853;SDS011;44154;45.506;-122.806;2022-12-15T03:59:59;6.80;;;3.70;;
50853;SDS011;44154;45.506;-122.806;2022-12-15T04:02:25;5.97;;;3.05;;
50853;SDS011;44154;45.506;-122.806;2022-12-15T04:04:51;6.13;;;3.47;;
50853;SDS011;44154;45.506;-122.806;2022-12-15T04:07:17;7.88;;;3.95;;
50853;SDS011;44154;45.506;-122.806;2022-12-15T04:09:44;9.27;;;3.80;;
50853;SDS011;44154;45.506;-122.806;2022-12-15T04:12:10;8.30;;;3.75;;
50853;SDS011;44154;45.506;-122.806;2022-12-15T04:14:37;8.50;;;4.70;;
50853;SDS011;44154;45.506;-122.806;2022-12-15T04:17:09;12.15;;;5.57;;
50853;SDS011;44154;45.506;-122.806;2022-12-15T04:19:39;7.40;;;4.80;;
50853;SDS011;44154;45.506;-122.806;2022-12-15T04:22:23;7.88;;;4.28;;
50853;SDS011;44154;45.506;-122.806;2022-12-15T04:24:49;6.93;;;5.05;;
50853;SDS011;44154;45.506;-122.806;2022-12-15T04:27:34;8.15;;;6.10;;
50853;SDS011;44154;45.506;-122.806;2022-12-15T04:30:18;16.75;;;7.32;;
50853;SDS011;44154;45.506;-122.806;2022-12-15T04:33:03;8.13;;;4.28;;
50853;SDS011;44154;45.506;-122.806;2022-12-15T04:35:48;6.07;;;4.20;;
50853;SDS011;44154;45.506;-122.806;2022-12-15T04:38:34;6.10;;;4.35;;
50853;SDS011;44154;45.506;-122.806;2022-12-15T04:41:19;7.25;;;4.13;;
50853;SDS011;44154;45.506;-122.806;2022-12-15T04:44:05;6.22;;;4.40;;
50853;SDS011;44154;45.506;-122.806;2022-12-15T04:46:50;5.70;;;3.97;;
50853;SDS011;44154;45.506;-122.806;2022-12-15T04:49:35;8.65;;;4.68;;
50853;SDS011;44154;45.506;-122.806;2022-12-15T04:52:19;6.70;;;4.35;;
50853;SDS011;44154;45.506;-122.806;2022-12-15T04:55:04;7.65;;;4.80;;
50853;SDS011;44154;45.506;-122.806;2022-12-15T04:57:48;11.20;;;8.32;;
50853;SDS011;44154;45.506;-122.806;2022-12-15T05:00:34;10.43;;;7.90;;
50853;SDS011;44154;45.506;-122.806;2022-12-15T05:03:18;7.43;;;6.43;;
50853;SDS011;44154;45.506;-122.806;2022-12-15T05:06:03;7.63;;;5.75;;
50853;SDS011;44154;45.506;-122.806;2022-12-15T05:08:47;7.82;;;5.65;;
50853;SDS011;44154;45.506;-122.806;2022-12-15T05:11:32;7.57;;;5.22;;
50853;SDS011;44154;45.506;-122.806;2022-12-15T05:14:16;8.15;;;5.95;;
50853;SDS011;44154;45.506;-122.806;2022-12-15T05:17:01;9.05;;;5.78;;
50853;SDS011;44154;45.506;-122.806;2022-12-15T05:19:45;9.65;;;5.72;;
50853;SDS011;44154;45.506;-122.806;2022-12-15T05:22:30;7.63;;;6.10;;
50853;SDS011;44154;45.506;-122.806;2022-12-15T05:25:14;11.23;;;5.78;;
50853;SDS011;44154;45.506;-122.806;2022-12-15T05:27:59;9.60;;;7.43;;
50853;SDS011;44154;45.506;-122.806;2022-12-15T05:30:43;9.10;;;7.10;;
50853;SDS011;44154;45.506;-122.806;2022-12-15T05:33:27;8.57;;;5.55;;
50853;SDS011;44154;45.506;-122.806;2022-12-15T05:35:56;8.20;;;5.95;;
50853;SDS011;44154;45.506;-122.806;2022-12-15T05:38:24;7.70;;;5.30;;
50853;SDS011;44154;45.506;-122.806;2022-12-15T05:40:50;8.02;;;5.35;;
50853;SDS011;44154;45.506;-122.806;2022-12-15T05:43:17;7.07;;;5.80;;
50853;SDS011;44154;45.506;-122.806;2022-12-15T05:45:43;7.32;;;5.78;;
50853;SDS011;44154;45.506;-122.806;2022-12-15T05:48:09;6.30;;;5.70;;
50853;SDS011;44154;45.506;-122.806;2022-12-15T05:50:35;7.13;;;5.50;;
50853;SDS011;44154;45.506;-122.806;2022-12-15T05:53:01;7.40;;;5.90;;
50853;SDS011;44154;45.506;-122.806;2022-12-15T05:55:27;7.93;;;5.70;;
50853;SDS011;44154;45.506;-122.806;2022-12-15T05:57:54;10.07;;;8.10;;
50853;SDS011;44154;45.506;-122.806;2022-12-15T06:00:20;10.40;;;9.38;;
50853;SDS011;44154;45.506;-122.806;2022-12-15T06:02:47;9.02;;;7.57;;
50853;SDS011;44154;45.506;-122.806;2022-12-15T06:05:13;7.45;;;6.07;;
50853;SDS011;44154;45.506;-122.806;2022-12-15T06:07:39;9.75;;;7.05;;
50853;SDS011;44154;45.506;-122.806;2022-12-15T06:10:06;8.07;;;6.72;;
50853;SDS011;44154;45.506;-122.806;2022-12-15T06:12:32;8.25;;;6.35;;
50853;SDS011;44154;45.506;-122.806;2022-12-15T06:14:58;9.63;;;6.53;;
50853;SDS011;44154;45.506;-122.806;2022-12-15T06:17:24;10.45;;;6.38;;
50853;SDS011;44154;45.506;-122.806;2022-12-15T06:19:50;9.48;;;6.80;;
50853;SDS011;44154;45.506;-122.806;2022-12-15T06:22:16;8.30;;;6.15;;
50853;SDS011;44154;45.506;-122.806;2022-12-15T06:24:43;8.48;;;6.53;;
50853;SDS011;44154;45.506;-122.806;2022-12-15T06:27:09;9.02;;;6.68;;
50853;SDS011;44154;45.506;-122.806;2022-12-15T06:29:35;9.82;;;8.00;;
50853;SDS011;44154;45.506;-122.806;2022-12-15T06:32:01;10.15;;;8.93;;
50853;SDS011;44154;45.506;-122.806;2022-12-15T06:34:28;9.52;;;7.55;;
50853;SDS011;44154;45.506;-122.806;2022-12-15T06:36:54;10.77;;;6.80;;
50853;SDS011;44154;45.506;-122.806;2022-12-15T06:39:20;7.85;;;6.88;;
50853;SDS011;44154;45.506;-122.806;2022-12-15T06:41:47;7.55;;;6.68;;
50853;SDS011;44154;45.506;-122.806;2022-12-15T06:44:14;7.78;;;6.57;;
50853;SDS011;44154;45.506;-122.806;2022-12-15T06:46:40;9.40;;;7.10;;
50853;SDS011;44154;45.506;-122.806;2022-12-15T06:49:07;11.57;;;6.35;;
50853;SDS011;44154;45.506;-122.806;2022-12-15T06:51:33;7.53;;;5.70;;
50853;SDS011;44154;45.506;-122.806;2022-12-15T06:53:59;7.25;;;6.35;;
50853;SDS011;44154;45.506;-122.806;2022-12-15T06:56:29;8.32;;;5.90;;
50853;SDS011;44154;45.506;-122.806;2022-12-15T06:58:57;11.65;;;6.60;;
50853;SDS011;44154;45.506;-122.806;2022-12-15T07:01:24;8.68;;;6.18;;
50853;SDS011;44154;45.506;-122.806;2022-12-15T07:03:51;7.45;;;6.20;;
50853;SDS011;44154;45.506;-122.806;2022-12-15T07:06:18;9.48;;;6.90;;
50853;SDS011;44154;45.506;-122.806;2022-12-15T07:08:47;8.27;;;6.40;;
50853;SDS011;44154;45.506;-122.806;2022-12-15T07:11:18;6.78;;;5.60;;
50853;SDS011;44154;45.506;-122.806;2022-12-15T07:13:49;7.82;;;6.82;;
50853;SDS011;44154;45.506;-122.806;2022-12-15T07:16:16;9.50;;;6.00;;
50853;SDS011;44154;45.506;-122.806;2022-12-15T07:18:43;7.90;;;6.82;;
50853;SDS011;44154;45.506;-122.806;2022-12-15T07:21:10;7.60;;;6.45;;
50853;SDS011;44154;45.506;-122.806;2022-12-15T07:23:36;8.30;;;5.93;;
50853;SDS011;44154;45.506;-122.806;2022-12-15T07:26:06;7.80;;;5.70;;
50853;SDS011;44154;45.506;-122.806;2022-12-15T07:28:34;11.77;;;6.28;;
50853;SDS011;44154;45.506;-122.806;2022-12-15T07:31:05;15.25;;;12.70;;
50853;SDS011;44154;45.506;-122.806;2022-12-15T07:33:32;14.48;;;13.18;;
50853;SDS011;44154;45.506;-122.806;2022-12-15T07:36:00;19.25;;;13.98;;
50853;SDS011;44154;45.506;-122.806;2022-12-15T07:38:27;12.88;;;11.68;;
50853;SDS011;44154;45.506;-122.806;2022-12-15T07:40:53;9.23;;;8.32;;
50853;SDS011;44154;45.506;-122.806;2022-12-15T07:43:24;8.77;;;6.90;;
50853;SDS011;44154;45.506;-122.806;2022-12-15T07:45:52;7.55;;;6.63;;
50853;SDS011;44154;45.506;-122.806;2022-12-15T07:48:19;7.63;;;6.80;;
50853;SDS011;44154;45.506;-122.806;2022-12-15T07:50:45;7.75;;;6.55;;
50853;SDS011;44154;45.506;-122.806;2022-12-15T07:53:12;7.75;;;6.88;;
50853;SDS011;44154;45.506;-122.806;2022-12-15T07:55:39;8.02;;;7.22;;
50853;SDS011;44154;45.506;-122.806;2022-12-15T07:58:05;8.52;;;7.15;;
50853;SDS011;44154;45.506;-122.806;2022-12-15T08:00:31;7.47;;;6.70;;
50853;SDS011;44154;45.506;-122.806;2022-12-15T08:02:59;7.95;;;6.60;;
50853;SDS011;44154;45.506;-122.806;2022-12-15T08:05:27;8.18;;;7.15;;
50853;SDS011;44154;45.506;-122.806;2022-12-15T08:07:53;7.85;;;6.97;;
50853;SDS011;44154;45.506;-122.806;2022-12-15T08:10:21;14.57;;;13.20;;
50853;SDS011;44154;45.506;-122.806;2022-12-15T08:12:47;11.68;;;10.57;;
50853;SDS011;44154;45.506;-122.806;2022-12-15T08:15:13;13.38;;;12.18;;
50853;SDS011;44154;45.506;-122.806;2022-12-15T08:17:40;7.93;;;7.05;;
50853;SDS011;44154;45.506;-122.806;2022-12-15T08:20:06;7.13;;;6.43;;
50853;SDS011;44154;45.506;-122.806;2022-12-15T08:22:32;7.00;;;6.30;;
50853;SDS011;44154;45.506;-122.806;2022-12-15T08:24:58;7.97;;;7.18;;
50853;SDS011;44154;45.506;-122.806;2022-12-15T08:27:25;7.07;;;6.38;;
50853;SDS011;44154;45.506;-122.806;2022-12-15T08:29:51;8.85;;;6.63;;
50853;SDS011;44154;45.506;-122.806;2022-12-15T08:32:19;7.65;;;6.85;;
50853;SDS011;44154;45.506;-122.806;2022-12-15T08:34:45;7.22;;;6.53;;
50853;SDS011;44154;45.506;-122.806;2022-12-15T08:37:13;8.80;;;7.90;;
50853;SDS011;44154;45.506;-122.806;2022-12-15T08:39:39;14.82;;;13.52;;
50853;SDS011;44154;45.506;-122.806;2022-12-15T08:42:06;13.65;;;12.45;;
50853;SDS011;44154;45.506;-122.806;2022-12-15T08:44:32;10.40;;;9.40;;
50853;SDS011;44154;45.506;-122.806;2022-12-15T08:46:59;7.20;;;6.50;;
50853;SDS011;44154;45.506;-122.806;2022-12-15T08:49:25;6.55;;;5.85;;
50853;SDS011;44154;45.506;-122.806;2022-12-15T08:51:51;6.85;;;6.20;;
50853;SDS011;44154;45.506;-122.806;2022-12-15T08:54:18;7.07;;;6.38;;
50853;SDS011;44154;45.506;-122.806;2022-12-15T08:56:45;6.88;;;6.18;;
50853;SDS011;44154;45.506;-122.806;2022-12-15T08:59:11;6.50;;;5.90;;
50853;SDS011;44154;45.506;-122.806;2022-12-15T09:01:39;6.80;;;6.20;;
50853;SDS011;44154;45.506;-122.806;2022-12-15T09:04:05;7.20;;;6.50;;
50853;SDS011;44154;45.506;-122.806;2022-12-15T09:06:33;13.75;;;12.55;;
50853;SDS011;44154;45.506;-122.806;2022-12-15T09:09:02;12.80;;;11.60;;
50853;SDS011;44154;45.506;-122.806;2022-12-15T09:11:31;10.05;;;9.15;;
50853;SDS011;44154;45.506;-122.806;2022-12-15T09:13:58;6.50;;;5.88;;
50853;SDS011;44154;45.506;-122.806;2022-12-15T09:16:24;6.13;;;5.53;;
50853;SDS011;44154;45.506;-122.806;2022-12-15T09:18:52;6.95;;;6.30;;
50853;SDS011;44154;45.506;-122.806;2022-12-15T09:21:20;6.35;;;5.75;;
50853;SDS011;44154;45.506;-122.806;2022-12-15T09:23:49;6.28;;;5.68;;
50853;SDS011;44154;45.506;-122.806;2022-12-15T09:26:25;6.95;;;6.25;;
50853;SDS011;44154;45.506;-122.806;2022-12-15T09:28:53;6.38;;;5.78;;
50853;SDS011;44154;45.506;-122.806;2022-12-15T09:31:21;6.72;;;6.07;;
50853;SDS011;44154;45.506;-122.806;2022-12-15T09:33:56;13.00;;;11.85;;
50853;SDS011;44154;45.506;-122.806;2022-12-15T09:36:23;12.43;;;11.27;;
50853;SDS011;44154;45.506;-122.806;2022-12-15T09:38:50;10.07;;;9.07;;
50853;SDS011;44154;45.506;-122.806;2022-12-15T09:41:20;6.18;;;5.57;;
50853;SDS011;44154;45.506;-122.806;2022-12-15T09:43:58;6.28;;;5.40;;
50853;SDS011;44154;45.506;-122.806;2022-12-15T09:49:24;6.22;;;5.50;;
50853;SDS011;44154;45.506;-122.806;2022-12-15T09:52:05;6.72;;;6.03;;
50853;SDS011;44154;45.506;-122.806;2022-12-15T09:54:36;6.28;;;5.68;;
50853;SDS011;44154;45.506;-122.806;2022-12-15T09:57:23;5.82;;;5.22;;
50853;SDS011;44154;45.506;-122.806;2022-12-15T10:00:08;9.43;;;7.97;;
50853;SDS011;44154;45.506;-122.806;2022-12-15T10:08:16;5.47;;;4.90;;
50853;SDS011;44154;45.506;-122.806;2022-12-15T10:13:20;6.43;;;5.78;;
50853;SDS011;44154;45.506;-122.806;2022-12-15T10:15:56;7.25;;;5.88;;
50853;SDS011;44154;45.506;-122.806;2022-12-15T10:21:25;7.85;;;5.75;;
50853;SDS011;44154;45.506;-122.806;2022-12-15T10:23:53;5.88;;;5.28;;
50853;SDS011;44154;45.506;-122.806;2022-12-15T10:26:40;5.75;;;5.18;;
50853;SDS011;44154;45.506;-122.806;2022-12-15T10:29:13;9.15;;;8.25;;
50853;SDS011;44154;45.506;-122.806;2022-12-15T10:31:54;10.90;;;9.90;;
50853;SDS011;44154;45.506;-122.806;2022-12-15T10:34:32;10.07;;;9.07;;
50853;SDS011;44154;45.506;-122.806;2022-12-15T10:37:03;6.90;;;6.20;;
50853;SDS011;44154;45.506;-122.806;2022-12-15T10:39:40;6.10;;;5.43;;
50853;SDS011;44154;45.506;-122.806;2022-12-15T10:42:09;6.43;;;5.35;;
50853;SDS011;44154;45.506;-122.806;2022-12-15T10:44:40;6.13;;;5.53;;
50853;SDS011;44154;45.506;-122.806;2022-12-15T10:47:18;5.70;;;5.10;;
50853;SDS011;44154;45.506;-122.806;2022-12-15T10:49:50;6.30;;;5.70;;
50853;SDS011;44154;45.506;-122.806;2022-12-15T10:52:23;6.50;;;5.90;;
50853;SDS011;44154;45.506;-122.806;2022-12-15T10:55:09;8.52;;;7.72;;
50853;SDS011;44154;45.506;-122.806;2022-12-15T10:58:20;10.45;;;9.45;;
50853;SDS011;44154;45.506;-122.806;2022-12-15T11:00:48;8.57;;;7.78;;
50853;SDS011;44154;45.506;-122.806;2022-12-15T11:03:36;7.00;;;6.30;;
50853;SDS011;44154;45.506;-122.806;2022-12-15T11:06:09;6.15;;;5.55;;
50853;SDS011;44154;45.506;-122.806;2022-12-15T11:08:43;6.53;;;5.60;;
50853;SDS011;44154;45.506;-122.806;2022-12-15T11:11:31;6.13;;;5.20;;
50853;SDS011;44154;45.506;-122.806;2022-12-15T11:14:19;6.65;;;5.95;;
50853;SDS011;44154;45.506;-122.806;2022-12-15T11:16:51;6.53;;;5.82;;
50853;SDS011;44154;45.506;-122.806;2022-12-15T11:19:35;6.22;;;5.63;;
50853;SDS011;44154;45.506;-122.806;2022-12-15T11:25:21;9.18;;;8.35;;
50853;SDS011;44154;45.506;-122.806;2022-12-15T11:27:56;8.13;;;7.32;;
50853;SDS011;44154;45.506;-122.806;2022-12-15T11:30:35;6.30;;;5.70;;
50853;SDS011;44154;45.506;-122.806;2022-12-15T11:33:07;6.47;;;5.40;;
50853;SDS011;44154;45.506;-122.806;2022-12-15T11:41:04;6.60;;;5.97;;
50853;SDS011;44154;45.506;-122.806;2022-12-15T11:46:23;8.15;;;7.32;;
50853;SDS011;44154;45.506;-122.806;2022-12-15T11:48:56;9.60;;;8.68;;
50853;SDS011;44154;45.506;-122.806;2022-12-15T11:51:50;8.98;;;8.07;;
50853;SDS011;44154;45.506;-122.806;2022-12-15T11:54:44;7.43;;;6.68;;
50853;SDS011;44154;45.506;-122.806;2022-12-15T12:00:15;6.95;;;6.25;;
50853;SDS011;44154;45.506;-122.806;2022-12-15T12:06:06;6.65;;;5.97;;
50853;SDS011;44154;45.506;-122.806;2022-12-15T12:08:37;6.63;;;5.93;;
50853;SDS011;44154;45.506;-122.806;2022-12-15T12:11:36;8.98;;;8.07;;
50853;SDS011;44154;45.506;-122.806;2022-12-15T12:14:17;9.90;;;8.88;;
50853;SDS011;44154;45.506;-122.806;2022-12-15T12:16:57;8.27;;;7.53;;
50853;SDS011;44154;45.506;-122.806;2022-12-15T12:19:50;7.80;;;7.00;;
50853;SDS011;44154;45.506;-122.806;2022-12-15T12:25:03;6.35;;;5.75;;
50853;SDS011;44154;45.506;-122.806;2022-12-15T12:27:51;6.82;;;6.05;;
50853;SDS011;44154;45.506;-122.806;2022-12-15T12:30:24;5.85;;;5.25;;
50853;SDS011;44154;45.506;-122.806;2022-12-15T12:32:57;6.00;;;5.40;;
50853;SDS011;44154;45.506;-122.806;2022-12-15T12:38:23;9.30;;;8.50;;
50853;SDS011;44154;45.506;-122.806;2022-12-15T12:43:33;7.45;;;6.75;;
50853;SDS011;44154;45.506;-122.806;2022-12-15T12:51:28;5.90;;;5.30;;
50853;SDS011;44154;45.506;-122.806;2022-12-15T12:53:57;6.00;;;5.40;;
50853;SDS011;44154;45.506;-122.806;2022-12-15T12:56:43;6.50;;;5.43;;
50853;SDS011;44154;45.506;-122.806;2022-12-15T13:02:10;9.02;;;8.13;;
50853;SDS011;44154;45.506;-122.806;2022-12-15T13:04:50;8.75;;;7.85;;
50853;SDS011;44154;45.506;-122.806;2022-12-15T13:07:32;8.43;;;7.63;;
50853;SDS011;44154;45.506;-122.806;2022-12-15T13:10:11;6.07;;;5.57;;
50853;SDS011;44154;45.506;-122.806;2022-12-15T13:20:32;6.13;;;5.53;;
50853;SDS011;44154;45.506;-122.806;2022-12-15T13:28:26;8.50;;;7.70;;
50853;SDS011;44154;45.506;-122.806;2022-12-15T13:41:41;6.75;;;6.05;;
50853;SDS011;44154;45.506;-122.806;2022-12-15T13:50:03;5.15;;;4.65;;
50853;SDS011;44154;45.506;-122.806;2022-12-15T13:53:09;5.00;;;4.50;;
50853;SDS011;44154;45.506;-122.806;2022-12-15T13:55:33;4.63;;;4.22;;
50853;SDS011;44154;45.506;-122.806;2022-12-15T13:58:12;5.20;;;4.70;;
50853;SDS011;44154;45.506;-122.806;2022-12-15T14:09:21;4.53;;;4.07;;
50853;SDS011;44154;45.506;-122.806;2022-12-15T14:12:11;4.53;;;4.10;;
50853;SDS011;44154;45.506;-122.806;2022-12-15T14:14:42;4.25;;;3.78;;
50853;SDS011;44154;45.506;-122.806;2022-12-15T14:17:12;3.63;;;3.25;;
50853;SDS011;44154;45.506;-122.806;2022-12-15T14:19:45;4.20;;;3.80;;
50853;SDS011;44154;45.506;-122.806;2022-12-15T14:24:45;4.60;;;4.10;;
50853;SDS011;44154;45.506;-122.806;2022-12-15T14:27:25;3.97;;;3.55;;
50853;SDS011;44154;45.506;-122.806;2022-12-15T14:32:35;3.90;;;3.60;;
50853;SDS011;44154;45.506;-122.806;2022-12-15T14:35:02;4.20;;;3.80;;
50853;SDS011;44154;45.506;-122.806;2022-12-15T14:37:29;3.60;;;3.30;;
50853;SDS011;44154;45.506;-122.806;2022-12-15T14:39:56;3.80;;;3.45;;
50853;SDS011;44154;45.506;-122.806;2022-12-15T14:42:23;3.72;;;3.33;;
50853;SDS011;44154;45.506;-122.806;2022-12-15T14:44:51;3.85;;;3.42;;
50853;SDS011;44154;45.506;-122.806;2022-12-15T14:47:19;4.07;;;3.40;;
50853;SDS011;44154;45.506;-122.806;2022-12-15T14:49:53;4.35;;;3.70;;
50853;SDS011;44154;45.506;-122.806;2022-12-15T14:52:28;4.82;;;3.75;;
50853;SDS011;44154;45.506;-122.806;2022-12-15T14:54:59;5.85;;;4.90;;
50853;SDS011;44154;45.506;-122.806;2022-12-15T14:57:45;4.93;;;3.70;;
50853;SDS011;44154;45.506;-122.806;2022-12-15T15:05:47;3.33;;;3.03;;
50853;SDS011;44154;45.506;-122.806;2022-12-15T15:08:28;3.95;;;3.35;;
50853;SDS011;44154;45.506;-122.806;2022-12-15T15:10:56;3.67;;;3.13;;
50853;SDS011;44154;45.506;-122.806;2022-12-15T15:13:29;3.53;;;3.22;;
50853;SDS011;44154;45.506;-122.806;2022-12-15T15:16:07;3.90;;;3.50;;
50853;SDS011;44154;45.506;-122.806;2022-12-15T15:18:43;4.18;;;3.78;;
50853;SDS011;44154;45.506;-122.806;2022-12-15T15:21:16;4.72;;;4.22;;
50853;SDS011;44154;45.506;-122.806;2022-12-15T15:24:19;5.20;;;4.70;;
50853;SDS011;44154;45.506;-122.806;2022-12-15T15:26:50;5.70;;;5.10;;
50853;SDS011;44154;45.506;-122.806;2022-12-15T15:32:03;5.18;;;3.97;;
50853;SDS011;44154;45.506;-122.806;2022-12-15T15:34:32;2.78;;;2.47;;
50853;SDS011;44154;45.506;-122.806;2022-12-15T15:37:00;3.00;;;2.67;;
50853;SDS011;44154;45.506;-122.806;2022-12-15T15:39:30;3.05;;;2.28;;
50853;SDS011;44154;45.506;-122.806;2022-12-15T15:42:02;4.40;;;3.00;;
50853;SDS011;44154;45.506;-122.806;2022-12-15T15:44:35;4.50;;;3.00;;
50853;SDS011;44154;45.506;-122.806;2022-12-15T15:47:01;4.47;;;3.53;;
50853;SDS011;44154;45.506;-122.806;2022-12-15T15:49:28;5.50;;;5.00;;
50853;SDS011;44154;45.506;-122.806;2022-12-15T15:51:54;7.95;;;6.95;;
50853;SDS011;44154;45.506;-122.806;2022-12-15T15:54:21;7.22;;;6.53;;
50853;SDS011;44154;45.506;-122.806;2022-12-15T15:56:49;7.68;;;6.22;;
50853;SDS011;44154;45.506;-122.806;2022-12-15T15:59:16;6.05;;;3.85;;
50853;SDS011;44154;45.506;-122.806;2022-12-15T16:01:46;6.00;;;3.60;;
50853;SDS011;44154;45.506;-122.806;2022-12-15T16:04:23;7.18;;;3.72;;
50853;SDS011;44154;45.506;-122.806;2022-12-15T16:06:50;5.70;;;3.80;;
50853;SDS011;44154;45.506;-122.806;2022-12-15T16:09:17;6.30;;;4.20;;
50853;SDS011;44154;45.506;-122.806;2022-12-15T16:11:43;5.78;;;4.15;;
50853;SDS011;44154;45.506;-122.806;2022-12-15T16:14:11;6.28;;;4.30;;
50853;SDS011;44154;45.506;-122.806;2022-12-15T16:16:39;5.00;;;4.28;;
50853;SDS011;44154;45.506;-122.806;2022-12-15T16:19:06;6.50;;;5.90;;
50853;SDS011;44154;45.506;-122.806;2022-12-15T16:21:32;7.30;;;6.60;;
50853;SDS011;44154;45.506;-122.806;2022-12-15T16:24:02;7.05;;;6.00;;
50853;SDS011;44154;45.506;-122.806;2022-12-15T16:26:33;4.72;;;4.22;;
50853;SDS011;44154;45.506;-122.806;2022-12-15T16:29:08;4.13;;;3.70;;
50853;SDS011;44154;45.506;-122.806;2022-12-15T16:31:40;3.80;;;3.10;;
50853;SDS011;44154;45.506;-122.806;2022-12-15T16:34:10;5.10;;;3.50;;
50853;SDS011;44154;45.506;-122.806;2022-12-15T16:36:37;3.90;;;3.25;;
50853;SDS011;44154;45.506;-122.806;2022-12-15T16:39:09;4.50;;;3.28;;
50853;SDS011;44154;45.506;-122.806;2022-12-15T16:41:53;5.80;;;5.20;;
50853;SDS011;44154;45.506;-122.806;2022-12-15T16:44:20;10.18;;;9.27;;
50853;SDS011;44154;45.506;-122.806;2022-12-15T16:46:47;9.85;;;8.95;;
50853;SDS011;44154;45.506;-122.806;2022-12-15T16:49:13;7.35;;;6.65;;
50853;SDS011;44154;45.506;-122.806;2022-12-15T16:51:41;3.92;;;3.30;;
50853;SDS011;44154;45.506;-122.806;2022-12-15T16:54:13;4.13;;;3.47;;
50853;SDS011;44154;45.506;-122.806;2022-12-15T16:56:58;4.70;;;4.22;;
50853;SDS011;44154;45.506;-122.806;2022-12-15T16:59:24;4.20;;;3.55;;